createdAt,value
2024-03-17T00:00:47.315Z,2.2
2024-03-17T00:02:01.608Z,2.5
2024-03-17T00:03:15.901Z,2.4
2024-03-17T00:04:30.193Z,2.6
2024-03-17T00:05:44.487Z,2.8
2024-03-17T00:06:58.760Z,2.5
2024-03-17T00:08:13.072Z,2.6
2024-03-17T00:09:27.365Z,2.4
2024-03-17T00:10:40.674Z,2.6
2024-03-17T00:11:54.967Z,2.5
2024-03-17T00:13:09.260Z,2.4
2024-03-17T00:14:23.539Z,2.6
2024-03-17T00:15:37.845Z,2.2
2024-03-17T00:16:52.138Z,2.7
2024-03-17T00:18:06.431Z,2.6
2024-03-17T00:19:20.724Z,2.5
2024-03-17T00:20:35.017Z,2.5
2024-03-17T00:21:49.310Z,2.4
2024-03-17T00:23:03.603Z,2.5
2024-03-17T00:24:17.895Z,2.5
2024-03-17T00:25:32.188Z,2.5
2024-03-17T00:26:45.497Z,2.8
2024-03-17T00:27:59.790Z,2.2
2024-03-17T00:29:14.083Z,2.8
2024-03-17T00:30:28.376Z,2.6
2024-03-17T00:31:42.669Z,2.4
2024-03-17T00:32:56.962Z,2.4
2024-03-17T00:34:11.255Z,2.5
2024-03-17T00:35:25.547Z,2.6
2024-03-17T00:36:39.818Z,2.7
2024-03-17T00:37:54.133Z,2.4
2024-03-17T00:39:08.426Z,2.4
2024-03-17T00:40:22.719Z,2.6
2024-03-17T00:41:37.012Z,2.5
2024-03-17T00:42:50.321Z,2.6
2024-03-17T00:44:04.597Z,2.4
2024-03-17T00:45:18.907Z,2.6
2024-03-17T00:46:33.199Z,2.5
2024-03-17T00:47:47.492Z,2.5
2024-03-17T00:49:01.786Z,2.5
2024-03-17T00:50:16.078Z,2.6
2024-03-17T00:51:30.371Z,2.3
2024-03-17T00:52:44.664Z,2.6
2024-03-17T00:53:58.957Z,2.4
2024-03-17T00:55:13.250Z,2.4
2024-03-17T00:56:27.543Z,2.4
2024-03-17T00:57:41.836Z,2.7
2024-03-17T00:58:55.145Z,2.6
2024-03-17T01:00:09.438Z,2.7
2024-03-17T01:01:23.731Z,2.7
2024-03-17T01:02:38.024Z,2.4
2024-03-17T01:03:52.317Z,3
2024-03-17T01:05:06.610Z,2.6
2024-03-17T01:06:20.901Z,2.9
2024-03-17T01:07:35.196Z,2.4
2024-03-17T01:08:49.489Z,2.9
2024-03-17T01:10:03.782Z,3.3
2024-03-17T01:11:18.075Z,2.8
2024-03-17T01:12:32.368Z,3
2024-03-17T01:13:46.661Z,2.9
2024-03-17T01:14:59.970Z,3.1
2024-03-17T01:16:14.263Z,3.4
2024-03-17T01:17:28.556Z,2.9
2024-03-17T01:18:42.849Z,3
2024-03-17T01:19:57.142Z,2.9
2024-03-17T01:21:11.431Z,2.7
2024-03-17T01:22:25.728Z,3.1
2024-03-17T01:23:40.021Z,3
2024-03-17T01:24:54.314Z,3
2024-03-17T01:26:08.607Z,3
2024-03-17T01:27:22.900Z,2.5
2024-03-17T01:28:37.192Z,2.9
2024-03-17T01:29:51.485Z,2.8
2024-03-17T01:31:04.795Z,2.7
2024-03-17T01:32:19.089Z,2.8
2024-03-17T01:33:33.382Z,2.6
2024-03-17T01:34:47.675Z,2.6
2024-03-17T01:36:01.968Z,2.6
2024-03-17T01:37:16.261Z,2.8
2024-03-17T01:38:30.554Z,2.5
2024-03-17T01:39:44.847Z,2.5
2024-03-17T01:40:59.140Z,2.6
2024-03-17T01:42:13.433Z,2.5
2024-03-17T01:43:27.726Z,2.7
2024-03-17T01:44:42.019Z,2.4
2024-03-17T01:45:56.312Z,2.4
2024-03-17T01:47:09.621Z,2.9
2024-03-17T01:48:23.914Z,2.8
2024-03-17T01:49:38.207Z,2.4
2024-03-17T01:50:52.500Z,2.5
2024-03-17T01:52:06.793Z,2.8
2024-03-17T01:53:21.063Z,2.8
2024-03-17T01:54:35.379Z,2.6
2024-03-17T01:55:49.672Z,2.8
2024-03-17T01:57:03.965Z,2.9
2024-03-17T01:58:18.245Z,2.8
2024-03-17T01:59:32.551Z,2.3
2024-03-17T02:00:46.844Z,2.7
2024-03-17T02:02:01.137Z,2.8
2024-03-17T02:03:14.446Z,2.9
2024-03-17T02:04:28.740Z,2.6
2024-03-17T02:05:43.032Z,2.7
2024-03-17T02:06:57.325Z,2.8
2024-03-17T02:08:11.618Z,2.4
2024-03-17T02:09:24.933Z,2.9
2024-03-17T02:10:39.226Z,2.5
2024-03-17T02:11:53.519Z,2.8
2024-03-17T02:13:07.799Z,2.5
2024-03-17T02:14:22.105Z,2.9
2024-03-17T02:15:36.398Z,2.8
2024-03-17T02:16:50.691Z,2.5
2024-03-17T02:18:04.984Z,2.6
2024-03-17T02:19:19.277Z,2.4
2024-03-17T02:20:33.570Z,2.6
2024-03-17T02:21:47.863Z,2.6
2024-03-17T02:23:02.156Z,2.4
2024-03-17T02:24:16.449Z,2.8
2024-03-17T02:25:29.758Z,2.5
2024-03-17T02:26:44.051Z,2.8
2024-03-17T02:27:58.344Z,2.6
2024-03-17T02:29:12.637Z,2.3
2024-03-17T02:30:26.930Z,2.5
2024-03-17T02:31:41.223Z,2.6
2024-03-17T02:32:55.516Z,2.6
2024-03-17T02:34:09.809Z,2.7
2024-03-17T02:35:24.102Z,2.6
2024-03-17T02:36:38.395Z,2.6
2024-03-17T02:37:52.688Z,2.5
2024-03-17T02:39:06.981Z,2.7
2024-03-17T02:40:21.274Z,2.7
2024-03-17T02:41:34.583Z,2.5
2024-03-17T02:42:48.876Z,2.4
2024-03-17T02:44:03.169Z,2.6
2024-03-17T02:45:17.462Z,2.7
2024-03-17T02:46:31.755Z,2.8
2024-03-17T02:47:46.049Z,2.4
2024-03-17T02:49:00.342Z,2.7
2024-03-17T02:50:14.635Z,2.9
2024-03-17T02:51:28.928Z,3
2024-03-17T02:52:43.221Z,2.7
2024-03-17T02:53:57.514Z,2.5
2024-03-17T02:55:11.807Z,2.6
2024-03-17T02:56:26.100Z,2.6
2024-03-17T02:57:39.409Z,2.5
2024-03-17T02:58:53.702Z,2.7
2024-03-17T03:00:07.995Z,2.3
2024-03-17T03:01:22.288Z,2.6
2024-03-17T03:02:36.581Z,2.6
2024-03-17T03:03:50.874Z,2.5
2024-03-17T03:05:05.167Z,2.7
2024-03-17T03:06:19.460Z,2.8
2024-03-17T03:07:33.753Z,2.4
2024-03-17T03:08:48.046Z,2.6
2024-03-17T03:10:02.339Z,2.7
2024-03-17T03:11:16.632Z,2.5
2024-03-17T03:12:30.925Z,2.8
2024-03-17T03:13:44.235Z,2.6
2024-03-17T03:14:58.528Z,2.8
2024-03-17T03:16:12.821Z,2.7
2024-03-17T03:17:27.114Z,2.6
2024-03-17T03:18:41.407Z,2.7
2024-03-17T03:19:55.700Z,2.5
2024-03-17T03:21:09.993Z,2.8
2024-03-17T03:22:24.286Z,2.8
2024-03-17T03:23:38.579Z,2.8
2024-03-17T03:24:52.872Z,2.7
2024-03-17T03:26:07.165Z,2.4
2024-03-17T03:27:21.458Z,2.5
2024-03-17T03:28:35.751Z,2.8
2024-03-17T03:29:49.060Z,2.6
2024-03-17T03:31:03.354Z,2.5
2024-03-17T03:32:17.647Z,2.8
2024-03-17T03:33:31.940Z,2.5
2024-03-17T03:34:46.233Z,2.4
2024-03-17T03:36:00.516Z,2.3
2024-03-17T03:37:14.820Z,2.6
2024-03-17T03:38:29.113Z,2.6
2024-03-17T03:39:43.406Z,2.3
2024-03-17T03:40:57.699Z,2.9
2024-03-17T03:42:11.992Z,2.7
2024-03-17T03:43:26.285Z,2.5
2024-03-17T03:44:40.578Z,2.6
2024-03-17T03:45:53.887Z,2.6
2024-03-17T03:47:08.180Z,2.7
2024-03-17T03:48:22.473Z,2.2
2024-03-17T03:49:36.759Z,2.5
2024-03-17T03:50:51.059Z,2.7
2024-03-17T03:52:05.353Z,2.6
2024-03-17T03:53:19.646Z,2.7
2024-03-17T03:54:33.939Z,2.6
2024-03-17T03:55:48.232Z,2.4
2024-03-17T03:57:02.525Z,2.8
2024-03-17T03:58:16.818Z,2.8
2024-03-17T03:59:31.111Z,2.8
2024-03-17T04:00:45.404Z,2.9
2024-03-17T04:01:58.713Z,2.9
2024-03-17T04:03:13.006Z,2.7
2024-03-17T04:04:27.299Z,2.8
2024-03-17T04:05:41.592Z,2.6
2024-03-17T04:06:55.885Z,2.8
2024-03-17T04:08:10.178Z,2.6
2024-03-17T04:09:24.471Z,2.6
2024-03-17T04:10:38.764Z,2.7
2024-03-17T04:11:53.057Z,2.6
2024-03-17T04:13:07.351Z,2.7
2024-03-17T04:14:21.644Z,2.6
2024-03-17T04:15:35.937Z,2.8
2024-03-17T04:16:50.230Z,2.8
2024-03-17T04:18:03.539Z,2.6
2024-03-17T04:19:17.832Z,2.6
2024-03-17T04:20:32.125Z,2.5
2024-03-17T04:21:46.418Z,2.4
2024-03-17T04:23:00.711Z,2.5
2024-03-17T04:24:15.004Z,2.6
2024-03-17T04:25:29.297Z,2.7
2024-03-17T04:26:43.590Z,2.9
2024-03-17T04:27:57.883Z,2.5
2024-03-17T04:29:12.176Z,2.7
2024-03-17T04:30:26.469Z,2.5
2024-03-17T04:31:40.762Z,2.5
2024-03-17T04:32:55.055Z,2.6
2024-03-17T04:34:08.364Z,2.6
2024-03-17T04:35:22.658Z,2.7
2024-03-17T04:36:36.951Z,2.4
2024-03-17T04:37:51.244Z,2.7
2024-03-17T04:39:05.537Z,3.3
2024-03-17T04:40:19.830Z,2.8
2024-03-17T04:41:34.123Z,2.9
2024-03-17T04:42:48.417Z,2.7
2024-03-17T04:44:02.656Z,2.4
2024-03-17T04:45:16.949Z,2.5
2024-03-17T04:46:31.242Z,2.6
2024-03-17T04:47:45.492Z,2.6
2024-03-17T04:48:59.786Z,2.7
2024-03-17T04:50:13.052Z,2.8
2024-03-17T04:51:27.291Z,2.4
2024-03-17T04:52:41.585Z,2.7
2024-03-17T04:53:55.835Z,2.7
2024-03-17T04:55:10.074Z,2.5
2024-03-17T04:56:24.313Z,2.5
2024-03-17T04:57:38.552Z,2.8
2024-03-17T04:58:52.791Z,2.5
2024-03-17T05:00:07.030Z,2.6
2024-03-17T05:01:21.269Z,2.7
2024-03-17T05:02:35.508Z,2.5
2024-03-17T05:03:49.747Z,2.7
2024-03-17T05:05:03.986Z,2.5
2024-03-17T05:06:17.242Z,2.6
2024-03-17T05:07:31.481Z,2.8
2024-03-17T05:08:45.720Z,2.6
2024-03-17T05:09:59.959Z,2.6
2024-03-17T05:11:14.198Z,2.8
2024-03-17T05:12:28.437Z,2.8
2024-03-17T05:13:42.676Z,3
2024-03-17T05:14:56.915Z,2.7
2024-03-17T05:16:11.154Z,2.5
2024-03-17T05:17:25.394Z,2.6
2024-03-17T05:18:39.633Z,3
2024-03-17T05:19:53.872Z,2.7
2024-03-17T05:21:08.111Z,2.5
2024-03-17T05:22:22.350Z,2.8
2024-03-17T05:23:35.605Z,2.8
2024-03-17T05:24:49.844Z,3
2024-03-17T05:26:04.083Z,2.8
2024-03-17T05:27:18.322Z,2.9
2024-03-17T05:28:32.562Z,2.8
2024-03-17T05:29:46.802Z,3.3
2024-03-17T05:31:01.041Z,3.3
2024-03-17T05:32:15.280Z,3.2
2024-03-17T05:33:29.519Z,3.4
2024-03-17T05:34:43.758Z,3.3
2024-03-17T05:35:57.997Z,3.5
2024-03-17T05:37:12.236Z,3.5
2024-03-17T05:38:26.476Z,3.7
2024-03-17T05:39:39.731Z,4.2
2024-03-17T05:40:53.970Z,3.9
2024-03-17T05:42:08.209Z,3.5
2024-03-17T05:43:22.448Z,3.6
2024-03-17T05:44:36.687Z,3.8
2024-03-17T05:45:50.926Z,3.4
2024-03-17T05:47:05.165Z,3.6
2024-03-17T05:48:19.404Z,3.8
2024-03-17T05:49:33.643Z,3.6
2024-03-17T05:50:47.883Z,3.8
2024-03-17T05:52:02.122Z,3.3
2024-03-17T05:53:16.361Z,3.7
2024-03-17T05:54:30.600Z,3.5
2024-03-17T05:55:43.855Z,3.6
2024-03-17T05:56:58.094Z,3.7
2024-03-17T05:58:12.333Z,3.5
2024-03-17T05:59:26.572Z,3.5
2024-03-17T06:00:40.811Z,3
2024-03-17T06:01:55.033Z,2.9
2024-03-17T06:03:09.289Z,3.2
2024-03-17T06:04:23.528Z,3.2
2024-03-17T06:05:37.768Z,3.1
2024-03-17T06:06:52.007Z,3
2024-03-17T06:08:06.246Z,3.2
2024-03-17T06:09:20.485Z,3.1
2024-03-17T06:10:34.724Z,3.2
2024-03-17T06:11:47.979Z,3.2
2024-03-17T06:13:02.218Z,3
2024-03-17T06:14:16.457Z,3
2024-03-17T06:15:30.696Z,3.4
2024-03-17T06:16:44.935Z,2.8
2024-03-17T06:17:58.196Z,3.1
2024-03-17T06:19:12.435Z,3.2
2024-03-17T06:20:26.674Z,3.1
2024-03-17T06:21:40.913Z,3.3
2024-03-17T06:22:55.152Z,3.2
2024-03-17T06:24:09.391Z,3.2
2024-03-17T06:25:23.630Z,3.2
2024-03-17T06:26:37.869Z,3.5
2024-03-17T06:27:52.108Z,3.4
2024-03-17T06:29:06.347Z,3.4
2024-03-17T06:30:20.586Z,3.4
2024-03-17T06:31:34.825Z,3.6
2024-03-17T06:32:49.065Z,3.6
2024-03-17T06:34:02.320Z,3.2
2024-03-17T06:35:16.559Z,3.7
2024-03-17T06:36:30.798Z,3.3
2024-03-17T06:37:45.037Z,3.1
2024-03-17T06:38:59.276Z,3.6
2024-03-17T06:40:13.515Z,3.4
2024-03-17T06:41:27.754Z,3.6
2024-03-17T06:42:41.993Z,3.6
2024-03-17T06:43:56.233Z,3.6
2024-03-17T06:45:10.472Z,3.7
2024-03-17T06:46:24.711Z,3.5
2024-03-17T06:47:38.950Z,3.7
2024-03-17T06:48:53.189Z,3.4
2024-03-17T06:50:06.444Z,3.4
2024-03-17T06:51:20.684Z,3.6
2024-03-17T06:52:34.923Z,3.7
2024-03-17T06:53:49.162Z,3.6
2024-03-17T06:55:03.401Z,3.6
2024-03-17T06:56:17.640Z,3.5
2024-03-17T06:57:31.879Z,3.4
2024-03-17T06:58:46.118Z,3.5
2024-03-17T07:00:00.357Z,3.2
2024-03-17T07:01:14.596Z,3.7
2024-03-17T07:02:28.835Z,3.7
2024-03-17T07:03:43.074Z,3.3
2024-03-17T07:04:57.313Z,3.5
2024-03-17T07:06:10.568Z,3.4
2024-03-17T07:07:24.807Z,3.5
2024-03-17T07:08:39.046Z,3.4
2024-03-17T07:09:53.285Z,3.3
2024-03-17T07:11:07.524Z,3.4
2024-03-17T07:12:21.762Z,3.1
2024-03-17T07:13:36.001Z,3.3
2024-03-17T07:14:50.240Z,3.7
2024-03-17T07:16:04.479Z,3.3
2024-03-17T07:17:18.718Z,3.2
2024-03-17T07:18:32.957Z,3.3
2024-03-17T07:19:47.196Z,3
2024-03-17T07:21:01.435Z,3.3
2024-03-17T07:22:14.690Z,3.4
2024-03-17T07:23:28.930Z,3.3
2024-03-17T07:24:43.168Z,3.6
2024-03-17T07:25:57.407Z,3.3
2024-03-17T07:27:11.646Z,3.2
2024-03-17T07:28:25.885Z,3.3
2024-03-17T07:29:40.124Z,3.2
2024-03-17T07:30:54.363Z,3.3
2024-03-17T07:32:08.602Z,3.3
2024-03-17T07:33:22.841Z,3.3
2024-03-17T07:34:37.079Z,3.1
2024-03-17T07:35:51.318Z,3.1
2024-03-17T07:37:05.557Z,2.9
2024-03-17T07:38:18.812Z,3.1
2024-03-17T07:39:33.035Z,3.1
2024-03-17T07:40:47.290Z,3.1
2024-03-17T07:42:01.528Z,3
2024-03-17T07:43:15.767Z,3.3
2024-03-17T07:44:30.006Z,3.1
2024-03-17T07:45:44.244Z,3.2
2024-03-17T07:46:58.479Z,3.1
2024-03-17T07:48:12.722Z,3.3
2024-03-17T07:49:26.961Z,3.3
2024-03-17T07:50:41.200Z,3.2
2024-03-17T07:51:55.439Z,2.8
2024-03-17T07:53:09.672Z,3.1
2024-03-17T07:54:22.912Z,3
2024-03-17T07:55:37.171Z,3.1
2024-03-17T07:56:51.410Z,2.5
2024-03-17T07:58:05.649Z,3.4
2024-03-17T07:59:19.889Z,3
2024-03-17T08:00:34.127Z,3.1
2024-03-17T08:01:48.366Z,3.3
2024-03-17T08:03:02.605Z,2.9
2024-03-17T08:04:16.844Z,3.1
2024-03-17T08:05:31.083Z,2.8
2024-03-17T08:06:45.321Z,3.1
2024-03-17T08:07:59.560Z,3
2024-03-17T08:09:13.788Z,2.9
2024-03-17T08:10:27.055Z,2.9
2024-03-17T08:11:41.294Z,2.9
2024-03-17T08:12:55.533Z,2.8
2024-03-17T08:14:09.771Z,3
2024-03-17T08:15:24.010Z,3
2024-03-17T08:16:38.230Z,2.8
2024-03-17T08:17:52.487Z,3.4
2024-03-17T08:19:06.725Z,3.1
2024-03-17T08:20:20.964Z,2.6
2024-03-17T08:21:35.202Z,2.8
2024-03-17T08:22:49.441Z,2.9
2024-03-17T08:24:03.669Z,2.7
2024-03-17T08:25:17.917Z,2.6
2024-03-17T08:26:31.172Z,2.6
2024-03-17T08:27:45.410Z,2.8
2024-03-17T08:28:59.648Z,2.4
2024-03-17T08:30:13.887Z,2.4
2024-03-17T08:31:28.125Z,2.7
2024-03-17T08:32:42.364Z,2.5
2024-03-17T08:33:56.602Z,2.7
2024-03-17T08:35:10.840Z,2.4
2024-03-17T08:36:25.078Z,2.3
2024-03-17T08:37:39.317Z,2.7
2024-03-17T08:38:53.555Z,2.5
2024-03-17T08:40:07.793Z,2.3
2024-03-17T08:41:22.032Z,2.6
2024-03-17T08:42:35.286Z,2.6
2024-03-17T08:43:49.524Z,2.1
2024-03-17T08:45:03.763Z,2.3
2024-03-17T08:46:18.001Z,2.4
2024-03-17T08:47:32.239Z,2.4
2024-03-17T08:48:46.478Z,3.3
2024-03-17T08:50:00.716Z,2.5
2024-03-17T08:51:14.954Z,2.9
2024-03-17T08:52:29.193Z,2.7
2024-03-17T08:53:43.431Z,2.8
2024-03-17T08:54:57.669Z,2.6
2024-03-17T08:56:11.908Z,3.3
2024-03-17T08:57:26.147Z,2.6
2024-03-17T08:58:39.401Z,2.5
2024-03-17T08:59:53.640Z,2.6
2024-03-17T09:01:07.878Z,2.9
2024-03-17T09:02:22.117Z,2.5
2024-03-17T09:03:36.355Z,2.8
2024-03-17T09:04:50.594Z,2.3
2024-03-17T09:06:04.832Z,3.1
2024-03-17T09:07:19.070Z,2.4
2024-03-17T09:08:33.309Z,3.2
2024-03-17T09:09:47.547Z,2.4
2024-03-17T09:11:01.786Z,2.6
2024-03-17T09:12:16.024Z,2.9
2024-03-17T09:13:30.244Z,2.9
2024-03-17T09:14:43.517Z,2.6
2024-03-17T09:15:57.756Z,2.8
2024-03-17T09:17:11.994Z,2.8
2024-03-17T09:18:26.233Z,2.6
2024-03-17T09:19:40.471Z,2.6
2024-03-17T09:20:54.710Z,2.6
2024-03-17T09:22:08.948Z,2.7
2024-03-17T09:23:23.186Z,3.1
2024-03-17T09:24:37.425Z,2.3
2024-03-17T09:25:51.663Z,2.3
2024-03-17T09:27:05.902Z,2.6
2024-03-17T09:28:20.140Z,3.1
2024-03-17T09:29:34.379Z,2.8
2024-03-17T09:30:47.633Z,2.7
2024-03-17T09:32:01.872Z,2.7
2024-03-17T09:33:16.110Z,2.5
2024-03-17T09:34:30.348Z,2.7
2024-03-17T09:35:44.587Z,2.7
2024-03-17T09:36:58.825Z,2.5
2024-03-17T09:38:13.065Z,2.6
2024-03-17T09:39:27.303Z,2.6
2024-03-17T09:40:41.542Z,2.3
2024-03-17T09:41:55.780Z,2.4
2024-03-17T09:43:10.018Z,2.4
2024-03-17T09:44:24.257Z,2.8
2024-03-17T09:45:38.495Z,2.4
2024-03-17T09:46:51.750Z,2.6
2024-03-17T09:48:05.988Z,2.3
2024-03-17T09:49:20.227Z,2.5
2024-03-17T09:50:34.465Z,2.5
2024-03-17T09:51:48.703Z,2.4
2024-03-17T09:53:02.942Z,2.3
2024-03-17T09:54:17.180Z,2.5
2024-03-17T09:55:31.418Z,2.2
2024-03-17T09:56:45.657Z,2.2
2024-03-17T09:57:59.895Z,2.4
2024-03-17T09:59:14.134Z,2.1
2024-03-17T10:00:28.372Z,2.3
2024-03-17T10:01:42.610Z,2.7
2024-03-17T10:02:55.865Z,2.7
2024-03-17T10:04:10.103Z,2.4
2024-03-17T10:05:24.342Z,2.4
2024-03-17T10:06:38.580Z,2
2024-03-17T10:07:52.819Z,2.5
2024-03-17T10:09:07.057Z,2.5
2024-03-17T10:10:21.295Z,2.6
2024-03-17T10:11:35.533Z,2.2
2024-03-17T10:12:49.772Z,2.2
2024-03-17T10:14:04.010Z,2.4
2024-03-17T10:15:18.248Z,2.2
2024-03-17T10:16:32.487Z,2.4
2024-03-17T10:17:46.725Z,2.5
2024-03-17T10:18:59.980Z,2.9
2024-03-17T10:20:14.218Z,2.3
2024-03-17T10:21:28.456Z,2.4
2024-03-17T10:22:42.695Z,2.5
2024-03-17T10:23:56.933Z,2.5
2024-03-17T10:25:11.171Z,2.8
2024-03-17T10:26:24.431Z,2.2
2024-03-17T10:27:38.669Z,2.3
2024-03-17T10:28:52.908Z,2.3
2024-03-17T10:30:07.146Z,2.2
2024-03-17T10:31:21.385Z,2.3
2024-03-17T10:32:35.623Z,2.1
2024-03-17T10:33:49.861Z,2.7
2024-03-17T10:35:04.100Z,2.6
2024-03-17T10:36:18.338Z,2.2
2024-03-17T10:37:32.576Z,2.9
2024-03-17T10:38:46.814Z,2.3
2024-03-17T10:40:01.053Z,2.4
2024-03-17T10:41:15.292Z,2.5
2024-03-17T10:42:28.546Z,2.4
2024-03-17T10:43:42.784Z,2.6
2024-03-17T10:44:57.023Z,2.7
2024-03-17T10:46:11.261Z,3
2024-03-17T10:47:25.499Z,2.5
2024-03-17T10:48:39.738Z,2.5
2024-03-17T10:49:53.976Z,2.5
2024-03-17T10:51:08.215Z,2.7
2024-03-17T10:52:22.453Z,2.9
2024-03-17T10:53:36.691Z,2.7
2024-03-17T10:54:50.930Z,2.6
2024-03-17T10:56:05.168Z,2.4
2024-03-17T10:57:19.406Z,2.6
2024-03-17T10:58:32.661Z,2.7
2024-03-17T10:59:46.899Z,2.6
2024-03-17T11:01:01.137Z,2.9
2024-03-17T11:02:15.376Z,2.4
2024-03-17T11:03:29.614Z,2.9
2024-03-17T11:04:43.853Z,2.6
2024-03-17T11:05:58.092Z,2.6
2024-03-17T11:07:12.330Z,2.6
2024-03-17T11:08:26.569Z,2.7
2024-03-17T11:09:40.807Z,2.7
2024-03-17T11:10:55.045Z,2.5
2024-03-17T11:12:09.284Z,2.5
2024-03-17T11:13:23.522Z,2.7
2024-03-17T11:14:36.777Z,3
2024-03-17T11:15:51.015Z,2.8
2024-03-17T11:17:05.253Z,2.9
2024-03-17T11:18:19.492Z,2.5
2024-03-17T11:19:33.730Z,3
2024-03-17T11:20:47.969Z,3.2
2024-03-17T11:22:02.207Z,3
2024-03-17T11:23:16.446Z,3.2
2024-03-17T11:24:30.684Z,2.8
2024-03-17T11:25:44.923Z,2.9
2024-03-17T11:26:59.161Z,2.9
2024-03-17T11:28:13.399Z,3.1
2024-03-17T11:29:27.638Z,2.8
2024-03-17T11:30:40.892Z,3.1
2024-03-17T11:31:55.130Z,3
2024-03-17T11:33:09.368Z,2.7
2024-03-17T11:34:23.607Z,2.5
2024-03-17T11:35:37.845Z,3.2
2024-03-17T11:36:52.084Z,3.4
2024-03-17T11:38:06.322Z,3.4
2024-03-17T11:39:20.560Z,3.6
2024-03-17T11:40:34.799Z,3.6
2024-03-17T11:41:49.037Z,5
2024-03-17T11:43:03.275Z,3.2
2024-03-17T11:44:17.514Z,3.1
2024-03-17T11:45:31.752Z,3.4
2024-03-17T11:46:45.006Z,4.2
2024-03-17T11:47:59.245Z,3.5
2024-03-17T11:49:13.483Z,3
2024-03-17T11:50:27.721Z,2.6
2024-03-17T11:51:41.960Z,2.7
2024-03-17T11:52:56.198Z,3
2024-03-17T11:54:10.436Z,3
2024-03-17T11:55:24.675Z,3.2
2024-03-17T11:56:38.913Z,3.2
2024-03-17T11:57:53.151Z,3.1
2024-03-17T11:59:07.390Z,3.7
2024-03-17T12:00:21.628Z,3.1
2024-03-17T12:01:35.866Z,3
2024-03-17T12:02:49.121Z,3.5
2024-03-17T12:04:03.359Z,3.8
2024-03-17T12:05:17.597Z,3.6
2024-03-17T12:06:31.818Z,4
2024-03-17T12:07:46.074Z,3.3
2024-03-17T12:09:00.312Z,3.5
2024-03-17T12:10:14.551Z,3.2
2024-03-17T12:11:28.789Z,3.5
2024-03-17T12:12:43.027Z,3.9
2024-03-17T12:13:57.265Z,4.1
2024-03-17T12:15:11.504Z,3.8
2024-03-17T12:16:25.742Z,3.6
2024-03-17T12:17:39.980Z,3.7
2024-03-17T12:18:53.235Z,3.9
2024-03-17T12:20:07.473Z,3.6
2024-03-17T12:21:21.711Z,4.1
2024-03-17T12:22:35.949Z,4
2024-03-17T12:23:50.188Z,4.8
2024-03-17T12:25:04.426Z,4.4
2024-03-17T12:26:18.664Z,4.4
2024-03-17T12:27:32.903Z,3.8
2024-03-17T12:28:47.141Z,3.6
2024-03-17T12:30:01.379Z,3.7
2024-03-17T12:31:15.618Z,3.9
2024-03-17T12:32:29.856Z,4.2
2024-03-17T12:33:44.094Z,4
2024-03-17T12:34:57.349Z,4.4
2024-03-17T12:36:11.587Z,4.3
2024-03-17T12:37:25.825Z,4.4
2024-03-17T12:38:40.063Z,4.3
2024-03-17T12:39:54.302Z,4
2024-03-17T12:41:08.540Z,4.3
2024-03-17T12:42:22.778Z,3.8
2024-03-17T12:43:37.016Z,4.2
2024-03-17T12:44:51.254Z,3.8
2024-03-17T12:46:05.492Z,3.7
2024-03-17T12:47:19.731Z,4.1
2024-03-17T12:48:33.969Z,4
2024-03-17T12:49:48.207Z,3.8
2024-03-17T12:51:01.462Z,4.2
2024-03-17T12:52:15.701Z,3.9
2024-03-17T12:53:29.939Z,3.1
2024-03-17T12:54:44.177Z,3.3
2024-03-17T12:55:58.415Z,3.6
2024-03-17T12:57:12.654Z,3.3
2024-03-17T12:58:26.892Z,3.4
2024-03-17T12:59:41.130Z,3.4
2024-03-17T13:00:55.369Z,3.6
2024-03-17T13:02:09.607Z,3.5
2024-03-17T13:03:23.845Z,3.4
2024-03-17T13:04:38.083Z,3.5
2024-03-17T13:05:52.322Z,3.8
2024-03-17T13:07:05.576Z,4
2024-03-17T13:08:19.814Z,4.1
2024-03-17T13:09:34.052Z,4.3
2024-03-17T13:10:48.291Z,4.1
2024-03-17T13:12:02.529Z,4.1
2024-03-17T13:13:16.768Z,4.1
2024-03-17T13:14:31.006Z,4.8
2024-03-17T13:15:45.244Z,6.1
2024-03-17T13:16:59.482Z,8.2
2024-03-17T13:18:13.721Z,7.1
2024-03-17T13:19:27.959Z,5.1
2024-03-17T13:20:42.198Z,4.4
2024-03-17T13:21:56.436Z,4.6
2024-03-17T13:23:09.690Z,4.7
2024-03-17T13:24:23.929Z,4.7
2024-03-17T13:25:38.167Z,4.9
2024-03-17T13:26:52.405Z,4.8
2024-03-17T13:28:06.643Z,4.9
2024-03-17T13:29:20.881Z,5
2024-03-17T13:30:35.120Z,4.7
2024-03-17T13:31:49.358Z,4.8
2024-03-17T13:33:03.597Z,5.1
2024-03-17T13:34:17.835Z,4.8
2024-03-17T13:35:32.073Z,4.9
2024-03-17T13:36:46.311Z,4.5
2024-03-17T13:38:00.550Z,5
2024-03-17T13:39:13.804Z,4.4
2024-03-17T13:40:28.042Z,5.2
2024-03-17T13:41:42.267Z,4.5
2024-03-17T13:42:56.519Z,4.8
2024-03-17T13:44:10.757Z,4.7
2024-03-17T13:45:24.996Z,4.6
2024-03-17T13:46:39.234Z,4.7
2024-03-17T13:47:53.472Z,4.8
2024-03-17T13:49:07.710Z,4.7
2024-03-17T13:50:21.949Z,4.6
2024-03-17T13:51:36.187Z,4.7
2024-03-17T13:52:50.425Z,4.6
2024-03-17T13:54:04.664Z,4.6
2024-03-17T13:55:17.918Z,4.3
2024-03-17T13:56:32.156Z,4.4
2024-03-17T13:57:46.395Z,4.2
2024-03-17T13:59:00.633Z,4.3
2024-03-17T14:00:14.871Z,4.3
2024-03-17T14:01:29.109Z,4.3
2024-03-17T14:02:43.348Z,4.1
2024-03-17T14:03:57.586Z,4.6
2024-03-17T14:05:11.825Z,4.5
2024-03-17T14:06:26.063Z,4.3
2024-03-17T14:07:40.301Z,4.3
2024-03-17T14:08:54.539Z,4.2
2024-03-17T14:10:08.778Z,4.2
2024-03-17T14:11:22.032Z,4.2
2024-03-17T14:12:36.270Z,4.3
2024-03-17T14:13:50.509Z,4.1
2024-03-17T14:15:04.747Z,4.3
2024-03-17T14:16:18.986Z,3.9
2024-03-17T14:17:33.224Z,3.8
2024-03-17T14:18:47.462Z,3.6
2024-03-17T14:20:01.700Z,4
2024-03-17T14:21:15.939Z,3.5
2024-03-17T14:22:30.177Z,3.6
2024-03-17T14:23:44.415Z,3.7
2024-03-17T14:24:58.654Z,3.2
2024-03-17T14:26:12.894Z,3.7
2024-03-17T14:27:26.147Z,3.6
2024-03-17T14:28:40.385Z,3.8
2024-03-17T14:29:54.623Z,3.3
2024-03-17T14:31:08.862Z,3.4
2024-03-17T14:32:23.100Z,3.3
2024-03-17T14:33:37.338Z,4.2
2024-03-17T14:34:50.598Z,3.9
2024-03-17T14:36:04.836Z,3.4
2024-03-17T14:37:19.075Z,3.2
2024-03-17T14:38:33.313Z,3.2
2024-03-17T14:39:47.551Z,3.1
2024-03-17T14:41:01.790Z,2.9
2024-03-17T14:42:16.028Z,2.7
2024-03-17T14:43:30.266Z,3.2
2024-03-17T14:44:44.505Z,2.8
2024-03-17T14:45:58.743Z,3.3
2024-03-17T14:47:12.981Z,3.6
2024-03-17T14:48:27.220Z,3.6
2024-03-17T14:49:41.458Z,3.9
2024-03-17T14:50:54.712Z,3.6
2024-03-17T14:52:08.951Z,3.6
2024-03-17T14:53:23.189Z,3.7
2024-03-17T14:54:37.427Z,4
2024-03-17T14:55:51.665Z,5
2024-03-17T14:57:05.903Z,3.5
2024-03-17T14:58:20.142Z,3.9
2024-03-17T14:59:34.380Z,3.5
2024-03-17T15:00:48.618Z,4.4
2024-03-17T15:02:02.857Z,3.5
2024-03-17T15:03:17.095Z,4.7
2024-03-17T15:04:31.333Z,4.4
2024-03-17T15:05:45.571Z,4.6
2024-03-17T15:06:58.826Z,3
2024-03-17T15:08:13.064Z,3.1
2024-03-17T15:09:27.303Z,2.8
2024-03-17T15:10:41.541Z,2.9
2024-03-17T15:11:55.779Z,2.8
2024-03-17T15:13:10.017Z,3.2
2024-03-17T15:14:24.256Z,3
2024-03-17T15:15:38.494Z,2.8
2024-03-17T15:16:52.732Z,2.9
2024-03-17T15:18:06.970Z,2.9
2024-03-17T15:19:21.209Z,2.8
2024-03-17T15:20:35.447Z,2.8
2024-03-17T15:21:49.685Z,3.1
2024-03-17T15:23:02.940Z,2.8
2024-03-17T15:24:17.178Z,2.8
2024-03-17T15:25:31.416Z,2.7
2024-03-17T15:26:45.654Z,3
2024-03-17T15:27:59.893Z,2.7
2024-03-17T15:29:14.131Z,2.8
2024-03-17T15:30:28.370Z,2.8
2024-03-17T15:31:42.608Z,2.7
2024-03-17T15:32:56.846Z,2.7
2024-03-17T15:34:11.084Z,3.1
2024-03-17T15:35:25.323Z,2.6
2024-03-17T15:36:39.561Z,2.8
2024-03-17T15:37:53.799Z,2.7
2024-03-17T15:39:07.054Z,2.7
2024-03-17T15:40:21.292Z,2.7
2024-03-17T15:41:35.530Z,2.3
2024-03-17T15:42:49.769Z,2.6
2024-03-17T15:44:04.007Z,3
2024-03-17T15:45:18.245Z,2.7
2024-03-17T15:46:32.483Z,2.9
2024-03-17T15:47:46.722Z,2.7
2024-03-17T15:49:00.960Z,2.8
2024-03-17T15:50:15.198Z,3
2024-03-17T15:51:29.437Z,2.6
2024-03-17T15:52:43.675Z,2.9
2024-03-17T15:53:57.913Z,3
2024-03-17T15:55:11.168Z,2.7
2024-03-17T15:56:25.406Z,2.9
2024-03-17T15:57:39.644Z,2.6
2024-03-17T15:58:53.883Z,2.8
2024-03-17T16:00:08.121Z,2.8
2024-03-17T16:01:22.359Z,3.1
2024-03-17T16:02:36.598Z,2.9
2024-03-17T16:03:50.836Z,2.9
2024-03-17T16:05:05.075Z,3
2024-03-17T16:06:19.313Z,3
2024-03-17T16:07:33.551Z,2.6
2024-03-17T16:08:47.790Z,3
2024-03-17T16:10:02.029Z,2.7
2024-03-17T16:11:15.283Z,2.8
2024-03-17T16:12:29.522Z,2.8
2024-03-17T16:13:43.760Z,3
2024-03-17T16:14:57.999Z,2.8
2024-03-17T16:16:12.237Z,2.8
2024-03-17T16:17:26.475Z,2.7
2024-03-17T16:18:40.713Z,2.9
2024-03-17T16:19:54.952Z,2.8
2024-03-17T16:21:09.190Z,2.6
2024-03-17T16:22:23.428Z,3
2024-03-17T16:23:37.667Z,2.9
2024-03-17T16:24:51.905Z,2.7
2024-03-17T16:26:06.144Z,2.9
2024-03-17T16:27:19.398Z,2.8
2024-03-17T16:28:33.637Z,2.9
2024-03-17T16:29:47.875Z,3
2024-03-17T16:31:02.113Z,2.9
2024-03-17T16:32:16.351Z,2.8
2024-03-17T16:33:30.590Z,3.4
2024-03-17T16:34:44.828Z,3.1
2024-03-17T16:35:59.067Z,2.9
2024-03-17T16:37:13.305Z,2.5
2024-03-17T16:38:27.544Z,3.1
2024-03-17T16:39:41.782Z,2.7
2024-03-17T16:40:56.020Z,2.9
2024-03-17T16:42:10.258Z,2.8
2024-03-17T16:43:23.513Z,2.8
2024-03-17T16:44:37.751Z,2.8
2024-03-17T16:45:51.990Z,2.9
2024-03-17T16:47:06.228Z,3
2024-03-17T16:48:20.466Z,2.9
2024-03-17T16:49:34.705Z,4.5
2024-03-17T16:50:48.943Z,5.1
2024-03-17T16:52:03.182Z,6.2
2024-03-17T16:53:17.420Z,4.7
2024-03-17T16:54:31.658Z,4.3
2024-03-17T16:55:45.897Z,4.6
2024-03-17T16:57:00.135Z,6.2
2024-03-17T16:58:14.374Z,8.3
2024-03-17T16:59:27.628Z,6
2024-03-17T17:00:41.866Z,6.1
2024-03-17T17:01:56.105Z,4.6
2024-03-17T17:03:10.343Z,3.8
2024-03-17T17:04:24.581Z,3.7
2024-03-17T17:05:38.819Z,3.1